createdAt,value
2017-10-15T00:01:49.636Z,12.93
2017-10-15T00:04:16.450Z,11.27
2017-10-15T00:06:44.010Z,12.70
2017-10-15T00:09:11.121Z,13.10
2017-10-15T00:11:37.890Z,14.07
2017-10-15T00:14:04.736Z,13.60
2017-10-15T00:16:32.190Z,13.30
2017-10-15T00:18:58.793Z,14.60
2017-10-15T00:21:25.667Z,14.10
2017-10-15T00:23:52.231Z,13.80
2017-10-15T00:26:19.062Z,14.70
2017-10-15T00:28:45.793Z,14.70
2017-10-15T00:31:13.354Z,13.37
2017-10-15T00:33:39.934Z,13.40
2017-10-15T00:36:06.704Z,14.20
2017-10-15T00:38:33.353Z,13.73
2017-10-15T00:41:00.827Z,13.00
2017-10-15T00:43:27.600Z,12.50
2017-10-15T00:45:54.482Z,13.60
2017-10-15T00:48:21.388Z,12.70
2017-10-15T00:50:51.124Z,12.80
2017-10-15T00:53:17.863Z,13.70
2017-10-15T00:55:44.651Z,14.80
2017-10-15T00:58:11.393Z,14.37
2017-10-15T01:00:38.170Z,13.70
2017-10-15T01:03:04.945Z,11.77
2017-10-15T01:05:31.748Z,13.27
2017-10-15T01:07:59.311Z,14.00
2017-10-15T01:10:26.081Z,12.63
2017-10-15T01:12:54.011Z,11.63
2017-10-15T01:15:20.819Z,11.30
2017-10-15T01:17:48.115Z,10.80
2017-10-15T01:20:15.025Z,12.47
2017-10-15T01:22:42.587Z,10.73
2017-10-15T01:25:09.358Z,11.07
2017-10-15T01:27:36.480Z,13.50
2017-10-15T01:30:03.569Z,13.13
2017-10-15T01:32:30.371Z,13.20
2017-10-15T01:34:57.152Z,13.23
2017-10-15T01:37:24.052Z,11.60
2017-10-15T01:39:51.024Z,12.00
2017-10-15T01:42:17.870Z,11.80
2017-10-15T01:44:44.739Z,12.63
2017-10-15T01:47:11.597Z,11.37
2017-10-15T01:49:38.461Z,11.00
2017-10-15T01:52:05.239Z,11.67
2017-10-15T01:54:32.086Z,10.10
2017-10-15T01:56:58.934Z,12.20
2017-10-15T01:59:25.734Z,11.60
2017-10-15T02:01:52.368Z,10.23
2017-10-15T02:04:19.085Z,10.80
2017-10-15T02:06:45.766Z,11.20
2017-10-15T02:09:12.356Z,10.90
2017-10-15T02:11:40.680Z,10.87
2017-10-15T02:14:07.501Z,11.43
2017-10-15T02:16:35.170Z,11.10
2017-10-15T02:19:01.806Z,10.10
2017-10-15T02:21:28.737Z,10.20
2017-10-15T02:23:56.243Z,11.40
2017-10-15T02:26:23.291Z,11.30
2017-10-15T02:28:50.214Z,10.60
2017-10-15T02:36:58.985Z,11.20
2017-10-15T02:39:25.688Z,10.00
2017-10-15T02:41:52.893Z,10.63
2017-10-15T02:44:19.775Z,10.73
2017-10-15T02:46:47.528Z,9.77
2017-10-15T02:49:14.432Z,10.60
2017-10-15T02:51:41.248Z,11.10
2017-10-15T02:54:08.196Z,11.00
2017-10-15T02:56:35.216Z,10.57
2017-10-15T02:59:02.653Z,10.70
2017-10-15T03:01:29.551Z,11.50
2017-10-15T03:03:56.135Z,11.20
2017-10-15T03:06:23.272Z,11.30
2017-10-15T03:08:50.253Z,11.90
2017-10-15T03:11:17.032Z,11.37
2017-10-15T03:13:44.284Z,11.03
2017-10-15T03:16:11.082Z,12.90
2017-10-15T03:18:37.881Z,11.83
2017-10-15T03:21:04.837Z,12.67
2017-10-15T03:23:31.939Z,13.37
2017-10-15T03:25:58.601Z,13.03
2017-10-15T03:28:25.523Z,14.80
2017-10-15T03:30:52.345Z,15.00
2017-10-15T03:33:19.768Z,16.43
2017-10-15T03:35:46.811Z,17.37
2017-10-15T03:38:13.825Z,16.40
2017-10-15T03:40:41.418Z,17.37
2017-10-15T03:43:08.273Z,17.13
2017-10-15T03:45:34.858Z,18.00
2017-10-15T03:48:01.746Z,17.73
2017-10-15T03:50:28.517Z,19.33
2017-10-15T03:52:55.429Z,18.00
2017-10-15T03:55:22.338Z,17.77
2017-10-15T03:57:49.124Z,20.00
2017-10-15T04:00:15.777Z,21.70
2017-10-15T04:02:42.737Z,22.83
2017-10-15T04:05:09.251Z,23.13
2017-10-15T04:07:36.128Z,22.83
2017-10-15T04:10:03.149Z,23.50
2017-10-15T04:12:29.803Z,24.97
2017-10-15T04:14:56.555Z,25.37
2017-10-15T04:17:23.361Z,24.53
2017-10-15T04:19:50.147Z,27.00
2017-10-15T04:22:17.176Z,24.07
2017-10-15T04:24:43.875Z,25.60
2017-10-15T04:27:10.946Z,26.00
2017-10-15T04:29:37.639Z,26.73
2017-10-15T04:32:04.456Z,28.73
2017-10-15T04:34:31.145Z,28.40
2017-10-15T04:36:58.160Z,29.43
2017-10-15T04:39:24.984Z,30.47
2017-10-15T04:41:51.976Z,32.00
2017-10-15T04:44:18.748Z,33.83
2017-10-15T04:46:45.502Z,33.60
2017-10-15T04:49:12.213Z,34.60
2017-10-15T04:51:39.160Z,36.57
2017-10-15T04:54:05.967Z,34.87
2017-10-15T04:56:33.380Z,35.43
2017-10-15T04:59:00.152Z,35.63
2017-10-15T05:01:27.033Z,36.83
2017-10-15T05:03:53.627Z,35.13
2017-10-15T05:06:20.334Z,36.17
2017-10-15T05:08:47.250Z,37.70
2017-10-15T05:11:13.985Z,40.10
2017-10-15T05:13:41.000Z,39.10
2017-10-15T05:16:07.946Z,37.70
2017-10-15T05:18:34.587Z,38.60
2017-10-15T05:21:01.401Z,40.23
2017-10-15T05:23:28.340Z,40.53
2017-10-15T05:25:55.616Z,41.27
2017-10-15T05:28:22.606Z,40.23
2017-10-15T05:30:49.606Z,40.60
2017-10-15T05:33:16.316Z,44.93
2017-10-15T05:35:43.816Z,47.00
2017-10-15T05:38:10.504Z,44.03
2017-10-15T05:40:37.203Z,44.60
2017-10-15T05:43:03.867Z,41.80
2017-10-15T05:45:30.663Z,41.53
2017-10-15T05:47:57.507Z,42.53
2017-10-15T05:50:24.645Z,42.20
2017-10-15T05:52:51.319Z,43.27
2017-10-15T05:55:18.103Z,40.00
2017-10-15T05:57:45.039Z,40.47
2017-10-15T06:00:11.782Z,43.00
2017-10-15T06:02:38.433Z,40.50
2017-10-15T06:05:05.924Z,40.17
2017-10-15T06:07:32.676Z,40.93
2017-10-15T06:09:59.362Z,39.50
2017-10-15T06:12:26.159Z,37.20
2017-10-15T06:14:52.746Z,37.93
2017-10-15T06:17:20.246Z,36.73
2017-10-15T06:19:46.793Z,37.20
2017-10-15T06:22:13.500Z,35.13
2017-10-15T06:24:40.647Z,35.37
2017-10-15T06:27:07.539Z,36.00
2017-10-15T06:29:34.423Z,37.77
2017-10-15T06:32:01.108Z,36.37
2017-10-15T06:34:27.750Z,36.97
2017-10-15T06:36:54.527Z,38.00
2017-10-15T06:39:21.265Z,37.50
2017-10-15T06:41:48.112Z,38.20
2017-10-15T06:44:14.904Z,36.40
2017-10-15T06:46:41.817Z,36.17
2017-10-15T06:49:08.449Z,38.17
2017-10-15T06:51:35.322Z,36.33
2017-10-15T06:54:01.832Z,34.13
2017-10-15T06:56:28.615Z,36.93
2017-10-15T06:58:55.403Z,38.53
2017-10-15T07:01:22.147Z,36.67
2017-10-15T07:03:49.208Z,35.93
2017-10-15T07:06:16.138Z,35.80
2017-10-15T07:08:42.853Z,36.83
2017-10-15T07:11:09.767Z,37.47
2017-10-15T07:13:36.668Z,35.33
2017-10-15T07:16:03.490Z,35.00
2017-10-15T07:18:30.466Z,34.93
2017-10-15T07:20:57.532Z,33.70
2017-10-15T07:23:26.248Z,33.03
2017-10-15T07:25:53.343Z,36.47
2017-10-15T07:28:20.230Z,35.33
2017-10-15T07:30:46.971Z,33.70
2017-10-15T07:33:13.745Z,37.33
2017-10-15T07:35:40.771Z,36.57
2017-10-15T07:38:07.573Z,35.93
2017-10-15T07:40:34.952Z,34.50
2017-10-15T07:43:02.455Z,34.60
2017-10-15T07:45:29.110Z,34.47
2017-10-15T07:47:56.075Z,34.47
2017-10-15T07:50:22.905Z,34.90
2017-10-15T07:52:49.549Z,36.77
2017-10-15T07:55:16.989Z,33.10
2017-10-15T07:57:43.790Z,32.33
2017-10-15T08:00:10.475Z,36.00
2017-10-15T08:02:37.217Z,37.47
2017-10-15T08:05:04.238Z,36.30
2017-10-15T08:07:30.909Z,37.90
2017-10-15T08:09:57.516Z,38.60
2017-10-15T08:12:24.369Z,34.47
2017-10-15T08:14:51.122Z,33.07
2017-10-15T08:17:18.008Z,35.60
2017-10-15T08:19:45.530Z,33.80
2017-10-15T08:22:12.400Z,35.47
2017-10-15T08:24:39.045Z,32.27
2017-10-15T08:27:05.795Z,29.30
2017-10-15T08:29:32.381Z,30.90
2017-10-15T08:31:59.221Z,30.17
2017-10-15T08:34:26.064Z,29.13
2017-10-15T08:36:53.503Z,28.37
2017-10-15T08:39:20.349Z,30.40
2017-10-15T08:41:47.110Z,31.53
2017-10-15T08:44:14.571Z,28.47
2017-10-15T08:46:41.297Z,30.07
2017-10-15T08:49:08.048Z,30.60
2017-10-15T08:51:34.936Z,30.10
2017-10-15T08:54:01.711Z,30.07
2017-10-15T08:56:28.589Z,30.17
2017-10-15T08:58:55.314Z,28.97
2017-10-15T09:01:22.246Z,28.00
2017-10-15T09:03:48.937Z,27.93
2017-10-15T09:06:15.723Z,23.03
2017-10-15T09:08:42.530Z,24.63
2017-10-15T09:11:09.429Z,23.93
2017-10-15T09:13:36.329Z,26.73
2017-10-15T09:16:05.519Z,26.00
2017-10-15T09:18:33.427Z,25.90
2017-10-15T09:21:00.479Z,24.30
2017-10-15T09:23:27.427Z,27.50
2017-10-15T09:25:54.576Z,25.53
2017-10-15T09:28:21.516Z,26.07
2017-10-15T09:30:48.253Z,27.93
2017-10-15T09:33:15.054Z,23.60
2017-10-15T09:35:41.925Z,25.40
2017-10-15T09:38:08.679Z,22.40
2017-10-15T09:40:35.550Z,21.00
2017-10-15T09:43:02.426Z,20.07
2017-10-15T09:45:29.293Z,19.83
2017-10-15T09:47:55.861Z,21.23
2017-10-15T09:50:22.726Z,21.33
2017-10-15T09:52:49.592Z,23.57
2017-10-15T09:55:16.398Z,22.67
2017-10-15T09:57:43.303Z,22.40
2017-10-15T10:00:10.127Z,25.47
2017-10-15T10:02:37.088Z,25.30
2017-10-15T10:05:03.890Z,21.47
2017-10-15T10:07:31.086Z,22.67
2017-10-15T10:09:57.727Z,20.20
2017-10-15T10:12:24.541Z,21.97
2017-10-15T10:14:51.286Z,21.50
2017-10-15T10:17:18.201Z,21.30
2017-10-15T10:19:45.058Z,20.57
2017-10-15T10:22:11.873Z,21.80
2017-10-15T10:29:58.623Z,19.70
2017-10-15T10:32:29.230Z,18.60
2017-10-15T10:47:55.347Z,23.00
2017-10-15T10:58:05.898Z,23.73
2017-10-15T11:00:38.205Z,23.37
2017-10-15T11:03:06.200Z,20.07
2017-10-15T11:08:07.994Z,18.70
2017-10-15T11:10:36.544Z,19.73
2017-10-15T11:33:40.196Z,16.27
2017-10-15T11:38:43.039Z,15.80
2017-10-15T11:41:16.406Z,14.67
2017-10-15T11:46:18.012Z,16.57
2017-10-15T11:53:51.580Z,16.83
2017-10-15T12:06:49.306Z,13.17
2017-10-15T12:14:28.188Z,12.77
2017-10-15T13:00:25.182Z,9.20
2017-10-15T13:23:23.700Z,9.27
2017-10-15T13:33:34.135Z,11.90
2017-10-15T13:51:36.503Z,12.33
2017-10-15T14:25:16.061Z,8.43
2017-10-15T14:32:53.637Z,7.10
2017-10-15T14:56:31.585Z,7.67
2017-10-15T14:58:58.521Z,7.53
2017-10-15T15:01:25.282Z,9.43
2017-10-15T15:03:51.911Z,8.93
2017-10-15T15:06:18.854Z,9.00
2017-10-15T15:08:45.752Z,9.57
2017-10-15T15:11:12.745Z,11.17
2017-10-15T15:13:39.482Z,10.70
2017-10-15T15:16:06.276Z,11.80
2017-10-15T15:18:33.949Z,11.43
2017-10-15T15:21:00.511Z,12.47
2017-10-15T15:23:27.030Z,13.77
2017-10-15T15:25:53.883Z,14.17
2017-10-15T15:28:20.635Z,13.30
2017-10-15T15:30:47.189Z,14.30
2017-10-15T15:33:13.981Z,15.30
2017-10-15T15:35:41.200Z,15.60
2017-10-15T15:38:08.046Z,15.53
2017-10-15T15:40:34.975Z,14.57
2017-10-15T15:43:02.527Z,16.57
2017-10-15T15:45:29.296Z,15.87
2017-10-15T15:47:55.971Z,16.00
2017-10-15T15:50:23.586Z,16.83
2017-10-15T15:52:50.459Z,17.63
2017-10-15T15:55:17.414Z,17.40
2017-10-15T15:57:44.521Z,19.67
2017-10-15T16:00:11.472Z,19.70
2017-10-15T16:02:38.392Z,18.80
2017-10-15T16:05:05.440Z,19.27
2017-10-15T16:07:32.661Z,19.70
2017-10-15T16:10:00.006Z,21.93
2017-10-15T16:12:27.072Z,21.27
2017-10-15T16:14:54.104Z,22.50
2017-10-15T16:17:21.412Z,23.10
2017-10-15T16:19:48.459Z,21.40
2017-10-15T16:22:15.614Z,22.17
2017-10-15T16:24:42.566Z,20.97
2017-10-15T16:27:10.926Z,23.37
2017-10-15T16:29:37.579Z,24.13
2017-10-15T16:32:04.394Z,23.47
2017-10-15T16:34:32.046Z,24.87
2017-10-15T16:36:58.865Z,26.10
2017-10-15T16:39:25.845Z,26.03
2017-10-15T16:41:52.444Z,25.40
2017-10-15T16:44:19.536Z,25.17
2017-10-15T16:46:46.353Z,27.10
2017-10-15T16:49:13.282Z,27.90
2017-10-15T16:51:40.274Z,26.87
2017-10-15T16:54:07.090Z,26.80
2017-10-15T16:56:33.931Z,26.73
2017-10-15T16:59:00.757Z,27.40
2017-10-15T17:01:27.834Z,27.07
2017-10-15T17:03:54.606Z,27.30
2017-10-15T17:06:21.433Z,27.60
2017-10-15T17:08:48.338Z,30.37
2017-10-15T17:11:15.522Z,27.63
2017-10-15T17:13:42.270Z,29.63
2017-10-15T17:16:09.139Z,29.27
2017-10-15T17:18:36.094Z,28.27
2017-10-15T17:21:03.189Z,29.30
2017-10-15T17:23:29.913Z,30.20
2017-10-15T17:25:56.717Z,31.37
2017-10-15T17:28:23.537Z,30.53
2017-10-15T17:30:50.271Z,30.33
2017-10-15T17:33:17.070Z,30.73
2017-10-15T17:35:43.781Z,30.67
2017-10-15T17:38:10.732Z,28.87
2017-10-15T17:40:37.486Z,31.30
2017-10-15T17:43:05.031Z,30.70
2017-10-15T17:45:31.926Z,31.93
2017-10-15T17:47:58.932Z,32.17
2017-10-15T17:50:28.350Z,31.13
2017-10-15T17:52:55.128Z,33.17
2017-10-15T17:55:21.872Z,31.97
2017-10-15T17:57:48.691Z,32.80
2017-10-15T18:00:15.344Z,34.60
2017-10-15T18:02:42.001Z,33.23
2017-10-15T18:05:08.754Z,33.47
2017-10-15T18:07:35.497Z,32.43
2017-10-15T18:10:02.352Z,32.90
2017-10-15T18:12:28.932Z,32.97
2017-10-15T18:14:55.627Z,32.93
2017-10-15T18:17:22.712Z,32.43
2017-10-15T18:19:49.355Z,33.80
2017-10-15T18:22:16.252Z,32.90
2017-10-15T18:24:42.958Z,32.33
2017-10-15T18:27:10.182Z,34.67
2017-10-15T18:29:37.412Z,34.83
2017-10-15T18:32:04.442Z,33.73
2017-10-15T18:34:31.469Z,35.10
2017-10-15T18:36:58.285Z,34.83
2017-10-15T18:39:25.499Z,32.17
2017-10-15T18:41:52.168Z,36.30
2017-10-15T18:44:19.170Z,32.03
2017-10-15T18:46:46.066Z,33.50
2017-10-15T18:49:12.696Z,34.90
2017-10-15T18:51:39.521Z,36.90
2017-10-15T18:54:06.253Z,35.47
2017-10-15T18:56:33.432Z,35.30
2017-10-15T18:59:00.301Z,35.63
2017-10-15T19:01:27.078Z,34.87
2017-10-15T19:03:54.016Z,35.07
2017-10-15T19:06:21.215Z,35.53
2017-10-15T19:08:47.968Z,33.87
2017-10-15T19:11:14.856Z,35.27
2017-10-15T19:13:41.595Z,36.93
2017-10-15T19:16:08.578Z,35.20
2017-10-15T19:18:35.276Z,34.80
2017-10-15T19:21:02.050Z,33.80
2017-10-15T19:23:28.966Z,34.23
2017-10-15T19:25:55.646Z,36.37
2017-10-15T19:28:22.443Z,34.67
2017-10-15T19:30:49.193Z,33.67
2017-10-15T19:33:15.781Z,34.97
2017-10-15T19:35:42.599Z,34.73
2017-10-15T19:38:09.311Z,36.13
2017-10-15T19:40:36.354Z,33.67
2017-10-15T19:43:03.145Z,34.50
2017-10-15T19:45:29.857Z,36.60
2017-10-15T19:47:56.813Z,34.67
2017-10-15T19:50:23.654Z,33.80
2017-10-15T19:52:50.387Z,30.87
2017-10-15T19:55:17.053Z,35.00
2017-10-15T19:57:43.791Z,33.93
2017-10-15T20:00:10.591Z,34.03
2017-10-15T20:02:37.459Z,30.23
2017-10-15T20:05:05.093Z,30.50
2017-10-15T20:07:31.886Z,28.27
2017-10-15T20:09:58.589Z,28.20
2017-10-15T20:12:25.638Z,27.10
2017-10-15T20:14:52.392Z,27.37
2017-10-15T20:17:19.123Z,27.93
2017-10-15T20:19:46.649Z,28.80
2017-10-15T20:22:13.416Z,28.30
2017-10-15T20:24:40.264Z,27.67
2017-10-15T20:27:07.071Z,25.00
2017-10-15T20:29:34.384Z,24.63
2017-10-15T20:32:01.675Z,23.00
2017-10-15T20:34:28.678Z,23.30
2017-10-15T20:36:55.585Z,21.47
2017-10-15T20:39:22.251Z,21.40
2017-10-15T20:41:49.100Z,19.30
2017-10-15T20:44:15.904Z,18.00
2017-10-15T20:46:43.147Z,17.47
2017-10-15T20:49:09.997Z,17.73
2017-10-15T20:51:37.031Z,16.40
2017-10-15T20:54:03.804Z,15.17
2017-10-15T20:56:31.337Z,14.67
2017-10-15T20:58:59.105Z,14.97
2017-10-15T21:01:25.842Z,14.07
2017-10-15T21:03:52.843Z,15.73
2017-10-15T21:06:21.589Z,14.20
2017-10-15T21:08:48.437Z,13.00
2017-10-15T21:11:15.111Z,14.37
2017-10-15T21:13:41.841Z,13.60
2017-10-15T21:16:08.646Z,13.23
2017-10-15T21:18:35.287Z,12.67
2017-10-15T21:21:02.821Z,12.90
2017-10-15T21:23:29.369Z,11.97
2017-10-15T21:25:56.879Z,13.20
2017-10-15T21:28:24.303Z,13.10
2017-10-15T21:30:52.091Z,12.70
2017-10-15T21:33:18.957Z,13.47
2017-10-15T21:35:45.876Z,12.80
2017-10-15T21:38:12.516Z,12.87
2017-10-15T21:40:39.321Z,11.37
2017-10-15T21:43:06.522Z,11.17
2017-10-15T21:45:33.378Z,11.53
2017-10-15T21:48:01.225Z,12.13
2017-10-15T21:50:27.811Z,11.00
2017-10-15T21:52:54.540Z,11.37
2017-10-15T21:55:21.267Z,12.00
2017-10-15T21:57:48.468Z,11.77
2017-10-15T22:00:15.694Z,11.40
2017-10-15T22:02:42.658Z,11.27
2017-10-15T22:05:09.818Z,11.47
2017-10-15T22:07:36.862Z,11.67
2017-10-15T22:10:03.557Z,11.37
2017-10-15T22:12:30.988Z,11.90
2017-10-15T22:14:57.868Z,11.93
2017-10-15T22:17:24.513Z,11.20
2017-10-15T22:19:51.222Z,11.53
2017-10-15T22:22:24.272Z,10.53
2017-10-15T22:24:50.993Z,11.50
2017-10-15T22:27:18.509Z,10.60
2017-10-15T22:29:45.248Z,9.60
2017-10-15T22:32:12.181Z,9.77
2017-10-15T22:34:39.053Z,11.70
2017-10-15T22:37:06.018Z,11.37
2017-10-15T22:39:35.721Z,12.20
2017-10-15T22:42:02.642Z,11.90
2017-10-15T22:44:29.598Z,11.13
2017-10-15T22:46:56.413Z,12.60
2017-10-15T22:49:23.198Z,12.67
2017-10-15T22:51:49.926Z,12.67
2017-10-15T22:54:16.640Z,13.50
2017-10-15T22:56:43.173Z,13.40
2017-10-15T22:59:10.111Z,13.60
2017-10-15T23:01:37.672Z,13.53
2017-10-15T23:04:04.514Z,12.83
2017-10-15T23:06:31.230Z,13.87
2017-10-15T23:08:57.930Z,15.20
2017-10-15T23:11:24.734Z,14.87
2017-10-15T23:13:51.389Z,15.93
2017-10-15T23:16:18.485Z,14.63
2017-10-15T23:18:45.113Z,16.20
2017-10-15T23:21:11.876Z,17.53
2017-10-15T23:23:39.291Z,15.20
2017-10-15T23:26:06.174Z,16.57
2017-10-15T23:28:32.945Z,17.23
2017-10-15T23:30:59.813Z,15.93
2017-10-15T23:33:27.319Z,17.10
2017-10-15T23:35:54.843Z,16.53
2017-10-15T23:38:21.706Z,19.80
2017-10-15T23:40:48.415Z,17.63
2017-10-15T23:43:14.996Z,18.83
2017-10-15T23:45:42.539Z,20.10
2017-10-15T23:48:09.524Z,18.97
2017-10-15T23:50:36.730Z,19.40
2017-10-15T23:53:03.573Z,20.60
2017-10-15T23:55:30.606Z,19.87
2017-10-15T23:57:57.240Z,20.53
